sensor_id;sensor_type;location;lat;lon;timestamp;P1;durP1;ratioP1;P2;durP2;ratioP2
51066;SDS011;37112;45.892;-123.962;2024-02-28T00:01:57;20.50;;;3.50;;
51066;SDS011;37112;45.892;-123.962;2024-02-28T00:04:07;24.60;;;5.90;;
51066;SDS011;37112;45.892;-123.962;2024-02-28T00:06:17;21.00;;;3.90;;
51066;SDS011;37112;45.892;-123.962;2024-02-28T00:08:27;22.20;;;4.90;;
51066;SDS011;37112;45.892;-123.962;2024-02-28T00:10:37;33.40;;;4.70;;
51066;SDS011;37112;45.892;-123.962;2024-02-28T00:12:48;28.90;;;5.60;;
51066;SDS011;37112;45.892;-123.962;2024-02-28T00:14:57;10.70;;;2.50;;
51066;SDS011;37112;45.892;-123.962;2024-02-28T00:17:07;13.90;;;2.40;;
51066;SDS011;37112;45.892;-123.962;2024-02-28T00:19:19;21.90;;;3.40;;
51066;SDS011;37112;45.892;-123.962;2024-02-28T00:21:31;18.40;;;4.10;;
51066;SDS011;37112;45.892;-123.962;2024-02-28T00:23:41;11.60;;;3.40;;
51066;SDS011;37112;45.892;-123.962;2024-02-28T00:25:51;16.90;;;2.70;;
51066;SDS011;37112;45.892;-123.962;2024-02-28T00:28:01;29.00;;;4.30;;
51066;SDS011;37112;45.892;-123.962;2024-02-28T00:30:12;24.20;;;4.00;;
51066;SDS011;37112;45.892;-123.962;2024-02-28T00:32:22;24.40;;;4.90;;
51066;SDS011;37112;45.892;-123.962;2024-02-28T00:34:33;20.80;;;4.10;;
51066;SDS011;37112;45.892;-123.962;2024-02-28T00:36:43;14.90;;;3.30;;
51066;SDS011;37112;45.892;-123.962;2024-02-28T00:39:00;14.40;;;2.70;;
51066;SDS011;37112;45.892;-123.962;2024-02-28T00:41:10;12.30;;;2.40;;
51066;SDS011;37112;45.892;-123.962;2024-02-28T00:43:21;26.00;;;4.90;;
51066;SDS011;37112;45.892;-123.962;2024-02-28T00:45:30;19.60;;;4.70;;
51066;SDS011;37112;45.892;-123.962;2024-02-28T00:47:40;14.10;;;2.40;;
51066;SDS011;37112;45.892;-123.962;2024-02-28T00:49:51;22.00;;;4.60;;
51066;SDS011;37112;45.892;-123.962;2024-02-28T00:52:01;21.30;;;3.20;;
51066;SDS011;37112;45.892;-123.962;2024-02-28T00:54:12;24.00;;;3.30;;
51066;SDS011;37112;45.892;-123.962;2024-02-28T00:56:22;16.80;;;4.20;;
51066;SDS011;37112;45.892;-123.962;2024-02-28T00:58:33;13.80;;;4.20;;
51066;SDS011;37112;45.892;-123.962;2024-02-28T01:00:43;37.30;;;12.00;;
51066;SDS011;37112;45.892;-123.962;2024-02-28T01:02:53;25.70;;;4.10;;
51066;SDS011;37112;45.892;-123.962;2024-02-28T01:05:03;27.20;;;6.20;;
51066;SDS011;37112;45.892;-123.962;2024-02-28T01:07:14;28.00;;;6.30;;
51066;SDS011;37112;45.892;-123.962;2024-02-28T01:09:24;17.20;;;3.80;;
51066;SDS011;37112;45.892;-123.962;2024-02-28T01:11:34;22.60;;;4.50;;
51066;SDS011;37112;45.892;-123.962;2024-02-28T01:13:44;25.30;;;5.10;;
51066;SDS011;37112;45.892;-123.962;2024-02-28T01:15:54;22.70;;;4.50;;
51066;SDS011;37112;45.892;-123.962;2024-02-28T01:18:06;22.60;;;5.10;;
51066;SDS011;37112;45.892;-123.962;2024-02-28T01:20:16;34.70;;;6.50;;
51066;SDS011;37112;45.892;-123.962;2024-02-28T01:22:26;28.40;;;5.80;;
51066;SDS011;37112;45.892;-123.962;2024-02-28T01:24:36;38.00;;;6.40;;
51066;SDS011;37112;45.892;-123.962;2024-02-28T01:26:46;20.40;;;4.10;;
51066;SDS011;37112;45.892;-123.962;2024-02-28T01:28:56;18.60;;;4.50;;
51066;SDS011;37112;45.892;-123.962;2024-02-28T01:31:07;24.60;;;5.50;;
51066;SDS011;37112;45.892;-123.962;2024-02-28T01:33:17;24.80;;;3.60;;
51066;SDS011;37112;45.892;-123.962;2024-02-28T01:35:27;22.80;;;4.70;;
51066;SDS011;37112;45.892;-123.962;2024-02-28T01:37:37;18.00;;;4.50;;
51066;SDS011;37112;45.892;-123.962;2024-02-28T01:39:47;36.00;;;6.30;;
51066;SDS011;37112;45.892;-123.962;2024-02-28T01:41:57;28.70;;;5.50;;
51066;SDS011;37112;45.892;-123.962;2024-02-28T01:44:07;18.40;;;6.20;;
51066;SDS011;37112;45.892;-123.962;2024-02-28T01:46:22;27.20;;;5.80;;
51066;SDS011;37112;45.892;-123.962;2024-02-28T01:48:33;20.90;;;4.60;;
51066;SDS011;37112;45.892;-123.962;2024-02-28T01:50:43;25.80;;;4.60;;
51066;SDS011;37112;45.892;-123.962;2024-02-28T01:52:53;17.90;;;4.70;;
51066;SDS011;37112;45.892;-123.962;2024-02-28T01:55:04;21.50;;;4.40;;
51066;SDS011;37112;45.892;-123.962;2024-02-28T01:57:16;24.30;;;7.70;;
51066;SDS011;37112;45.892;-123.962;2024-02-28T01:59:26;31.70;;;7.10;;
51066;SDS011;37112;45.892;-123.962;2024-02-28T02:01:37;23.40;;;5.20;;
51066;SDS011;37112;45.892;-123.962;2024-02-28T02:03:49;27.60;;;6.30;;
51066;SDS011;37112;45.892;-123.962;2024-02-28T02:05:59;23.60;;;5.60;;
51066;SDS011;37112;45.892;-123.962;2024-02-28T02:08:09;26.40;;;6.80;;
51066;SDS011;37112;45.892;-123.962;2024-02-28T02:10:19;41.40;;;6.80;;
51066;SDS011;37112;45.892;-123.962;2024-02-28T02:12:29;27.80;;;6.50;;
51066;SDS011;37112;45.892;-123.962;2024-02-28T02:14:39;28.80;;;6.20;;
51066;SDS011;37112;45.892;-123.962;2024-02-28T02:16:54;27.80;;;6.20;;
51066;SDS011;37112;45.892;-123.962;2024-02-28T02:19:04;19.70;;;4.50;;
51066;SDS011;37112;45.892;-123.962;2024-02-28T02:21:17;22.90;;;6.40;;
51066;SDS011;37112;45.892;-123.962;2024-02-28T02:23:30;29.80;;;6.90;;
51066;SDS011;37112;45.892;-123.962;2024-02-28T02:25:45;24.50;;;5.20;;
51066;SDS011;37112;45.892;-123.962;2024-02-28T02:27:55;31.60;;;6.80;;
51066;SDS011;37112;45.892;-123.962;2024-02-28T02:30:06;21.80;;;5.00;;
51066;SDS011;37112;45.892;-123.962;2024-02-28T02:32:18;26.90;;;5.20;;
51066;SDS011;37112;45.892;-123.962;2024-02-28T02:34:28;21.00;;;4.50;;
51066;SDS011;37112;45.892;-123.962;2024-02-28T02:36:38;18.40;;;3.70;;
51066;SDS011;37112;45.892;-123.962;2024-02-28T02:38:48;24.30;;;5.30;;
51066;SDS011;37112;45.892;-123.962;2024-02-28T02:40:58;28.90;;;5.90;;
51066;SDS011;37112;45.892;-123.962;2024-02-28T02:43:08;45.80;;;8.30;;
51066;SDS011;37112;45.892;-123.962;2024-02-28T02:45:18;24.00;;;5.70;;
51066;SDS011;37112;45.892;-123.962;2024-02-28T02:47:28;26.20;;;5.80;;
51066;SDS011;37112;45.892;-123.962;2024-02-28T02:49:38;31.00;;;6.90;;
51066;SDS011;37112;45.892;-123.962;2024-02-28T02:51:48;26.10;;;6.00;;
51066;SDS011;37112;45.892;-123.962;2024-02-28T02:53:58;26.10;;;6.00;;
51066;SDS011;37112;45.892;-123.962;2024-02-28T02:56:09;43.70;;;8.10;;
51066;SDS011;37112;45.892;-123.962;2024-02-28T02:58:19;24.10;;;6.20;;
51066;SDS011;37112;45.892;-123.962;2024-02-28T03:00:28;27.10;;;5.20;;
51066;SDS011;37112;45.892;-123.962;2024-02-28T03:02:39;24.00;;;5.10;;
51066;SDS011;37112;45.892;-123.962;2024-02-28T03:04:49;26.50;;;7.70;;
51066;SDS011;37112;45.892;-123.962;2024-02-28T03:06:59;44.50;;;7.50;;
51066;SDS011;37112;45.892;-123.962;2024-02-28T03:09:09;36.70;;;7.40;;
51066;SDS011;37112;45.892;-123.962;2024-02-28T03:11:19;40.10;;;6.80;;
51066;SDS011;37112;45.892;-123.962;2024-02-28T03:13:29;25.90;;;4.60;;
51066;SDS011;37112;45.892;-123.962;2024-02-28T03:15:39;31.40;;;7.00;;
51066;SDS011;37112;45.892;-123.962;2024-02-28T03:17:49;27.90;;;7.60;;
51066;SDS011;37112;45.892;-123.962;2024-02-28T03:19:59;39.40;;;9.50;;
51066;SDS011;37112;45.892;-123.962;2024-02-28T03:22:09;29.80;;;6.70;;
51066;SDS011;37112;45.892;-123.962;2024-02-28T03:24:19;30.30;;;5.70;;
51066;SDS011;37112;45.892;-123.962;2024-02-28T03:26:29;29.00;;;6.00;;
51066;SDS011;37112;45.892;-123.962;2024-02-28T03:28:39;31.10;;;6.20;;
51066;SDS011;37112;45.892;-123.962;2024-02-28T03:30:49;31.10;;;6.70;;
51066;SDS011;37112;45.892;-123.962;2024-02-28T03:32:59;28.90;;;4.90;;
51066;SDS011;37112;45.892;-123.962;2024-02-28T03:35:10;33.90;;;7.00;;
51066;SDS011;37112;45.892;-123.962;2024-02-28T03:37:20;25.50;;;4.80;;
51066;SDS011;37112;45.892;-123.962;2024-02-28T03:39:30;30.50;;;6.10;;
51066;SDS011;37112;45.892;-123.962;2024-02-28T03:41:40;32.10;;;5.50;;
51066;SDS011;37112;45.892;-123.962;2024-02-28T03:43:50;30.30;;;5.50;;
51066;SDS011;37112;45.892;-123.962;2024-02-28T03:46:00;35.30;;;5.30;;
51066;SDS011;37112;45.892;-123.962;2024-02-28T03:48:10;33.10;;;6.10;;
51066;SDS011;37112;45.892;-123.962;2024-02-28T03:50:20;24.70;;;6.00;;
51066;SDS011;37112;45.892;-123.962;2024-02-28T03:52:30;26.60;;;5.50;;
51066;SDS011;37112;45.892;-123.962;2024-02-28T03:54:41;31.00;;;7.20;;
51066;SDS011;37112;45.892;-123.962;2024-02-28T03:56:51;38.70;;;8.50;;
51066;SDS011;37112;45.892;-123.962;2024-02-28T03:59:02;57.70;;;11.50;;
51066;SDS011;37112;45.892;-123.962;2024-02-28T04:01:12;43.40;;;9.20;;
51066;SDS011;37112;45.892;-123.962;2024-02-28T04:03:22;29.80;;;7.10;;
51066;SDS011;37112;45.892;-123.962;2024-02-28T04:05:33;31.80;;;7.00;;
51066;SDS011;37112;45.892;-123.962;2024-02-28T04:07:43;29.00;;;7.10;;
51066;SDS011;37112;45.892;-123.962;2024-02-28T04:09:53;36.80;;;10.20;;
51066;SDS011;37112;45.892;-123.962;2024-02-28T04:12:03;34.70;;;8.60;;
51066;SDS011;37112;45.892;-123.962;2024-02-28T04:14:13;43.00;;;8.20;;
51066;SDS011;37112;45.892;-123.962;2024-02-28T04:16:23;50.80;;;9.50;;
51066;SDS011;37112;45.892;-123.962;2024-02-28T04:18:33;38.20;;;7.70;;
51066;SDS011;37112;45.892;-123.962;2024-02-28T04:20:43;39.30;;;8.30;;
51066;SDS011;37112;45.892;-123.962;2024-02-28T04:22:53;38.30;;;6.60;;
51066;SDS011;37112;45.892;-123.962;2024-02-28T04:25:04;47.20;;;8.50;;
51066;SDS011;37112;45.892;-123.962;2024-02-28T04:27:15;30.10;;;7.00;;
51066;SDS011;37112;45.892;-123.962;2024-02-28T04:29:25;32.20;;;7.10;;
51066;SDS011;37112;45.892;-123.962;2024-02-28T04:31:37;30.80;;;7.20;;
51066;SDS011;37112;45.892;-123.962;2024-02-28T04:33:47;37.10;;;7.10;;
51066;SDS011;37112;45.892;-123.962;2024-02-28T04:35:57;61.20;;;11.10;;
51066;SDS011;37112;45.892;-123.962;2024-02-28T04:38:08;46.10;;;10.10;;
51066;SDS011;37112;45.892;-123.962;2024-02-28T04:40:18;46.20;;;7.30;;
51066;SDS011;37112;45.892;-123.962;2024-02-28T04:42:28;28.90;;;7.10;;
51066;SDS011;37112;45.892;-123.962;2024-02-28T04:44:38;37.10;;;10.20;;
51066;SDS011;37112;45.892;-123.962;2024-02-28T04:46:48;37.00;;;6.40;;
51066;SDS011;37112;45.892;-123.962;2024-02-28T04:48:58;31.70;;;5.10;;
51066;SDS011;37112;45.892;-123.962;2024-02-28T04:51:08;31.00;;;7.00;;
51066;SDS011;37112;45.892;-123.962;2024-02-28T04:53:18;38.50;;;10.90;;
51066;SDS011;37112;45.892;-123.962;2024-02-28T04:55:28;42.20;;;8.80;;
51066;SDS011;37112;45.892;-123.962;2024-02-28T04:57:38;38.10;;;6.60;;
51066;SDS011;37112;45.892;-123.962;2024-02-28T04:59:48;32.10;;;6.60;;
51066;SDS011;37112;45.892;-123.962;2024-02-28T05:01:58;29.30;;;6.60;;
51066;SDS011;37112;45.892;-123.962;2024-02-28T05:04:09;35.90;;;6.00;;
51066;SDS011;37112;45.892;-123.962;2024-02-28T05:06:20;33.90;;;7.30;;
51066;SDS011;37112;45.892;-123.962;2024-02-28T05:08:30;28.00;;;5.30;;
51066;SDS011;37112;45.892;-123.962;2024-02-28T05:10:41;26.20;;;5.60;;
51066;SDS011;37112;45.892;-123.962;2024-02-28T05:12:51;29.20;;;4.80;;
51066;SDS011;37112;45.892;-123.962;2024-02-28T05:15:02;21.70;;;4.10;;
51066;SDS011;37112;45.892;-123.962;2024-02-28T05:17:13;23.70;;;4.00;;
51066;SDS011;37112;45.892;-123.962;2024-02-28T05:19:23;21.60;;;3.30;;
51066;SDS011;37112;45.892;-123.962;2024-02-28T05:21:38;31.90;;;4.70;;
51066;SDS011;37112;45.892;-123.962;2024-02-28T05:23:49;33.20;;;3.90;;
51066;SDS011;37112;45.892;-123.962;2024-02-28T05:25:58;39.80;;;8.30;;
51066;SDS011;37112;45.892;-123.962;2024-02-28T05:28:09;40.30;;;4.80;;
51066;SDS011;37112;45.892;-123.962;2024-02-28T05:30:19;13.20;;;2.50;;
51066;SDS011;37112;45.892;-123.962;2024-02-28T05:32:29;10.90;;;2.60;;
51066;SDS011;37112;45.892;-123.962;2024-02-28T05:34:40;19.80;;;3.00;;
51066;SDS011;37112;45.892;-123.962;2024-02-28T05:36:51;20.70;;;6.20;;
51066;SDS011;37112;45.892;-123.962;2024-02-28T05:39:01;21.50;;;2.70;;
51066;SDS011;37112;45.892;-123.962;2024-02-28T05:41:14;14.70;;;2.90;;
51066;SDS011;37112;45.892;-123.962;2024-02-28T05:43:25;17.20;;;2.50;;
51066;SDS011;37112;45.892;-123.962;2024-02-28T05:45:35;18.20;;;2.70;;
51066;SDS011;37112;45.892;-123.962;2024-02-28T05:47:46;20.10;;;3.20;;
51066;SDS011;37112;45.892;-123.962;2024-02-28T05:49:56;17.10;;;2.70;;
51066;SDS011;37112;45.892;-123.962;2024-02-28T05:52:06;46.90;;;8.30;;
51066;SDS011;37112;45.892;-123.962;2024-02-28T05:54:17;27.10;;;4.90;;
51066;SDS011;37112;45.892;-123.962;2024-02-28T05:56:27;33.40;;;5.80;;
51066;SDS011;37112;45.892;-123.962;2024-02-28T05:58:37;47.10;;;6.40;;
51066;SDS011;37112;45.892;-123.962;2024-02-28T06:00:46;34.00;;;5.70;;
51066;SDS011;37112;45.892;-123.962;2024-02-28T06:02:56;23.30;;;6.20;;
51066;SDS011;37112;45.892;-123.962;2024-02-28T06:05:07;40.20;;;7.00;;
51066;SDS011;37112;45.892;-123.962;2024-02-28T06:07:18;37.40;;;8.40;;
51066;SDS011;37112;45.892;-123.962;2024-02-28T06:09:30;32.30;;;6.50;;
51066;SDS011;37112;45.892;-123.962;2024-02-28T06:11:40;65.60;;;9.60;;
51066;SDS011;37112;45.892;-123.962;2024-02-28T06:13:50;25.10;;;4.60;;
51066;SDS011;37112;45.892;-123.962;2024-02-28T06:16:01;35.60;;;6.60;;
51066;SDS011;37112;45.892;-123.962;2024-02-28T06:18:11;31.30;;;6.80;;
51066;SDS011;37112;45.892;-123.962;2024-02-28T06:20:21;44.60;;;7.80;;
51066;SDS011;37112;45.892;-123.962;2024-02-28T06:22:31;29.20;;;6.10;;
51066;SDS011;37112;45.892;-123.962;2024-02-28T06:24:41;34.40;;;6.20;;
51066;SDS011;37112;45.892;-123.962;2024-02-28T06:26:51;41.60;;;7.70;;
51066;SDS011;37112;45.892;-123.962;2024-02-28T06:29:01;41.00;;;6.70;;
51066;SDS011;37112;45.892;-123.962;2024-02-28T06:31:15;28.10;;;5.40;;
51066;SDS011;37112;45.892;-123.962;2024-02-28T06:33:25;33.50;;;5.80;;
51066;SDS011;37112;45.892;-123.962;2024-02-28T06:35:36;23.50;;;5.30;;
51066;SDS011;37112;45.892;-123.962;2024-02-28T06:37:46;15.90;;;4.90;;
51066;SDS011;37112;45.892;-123.962;2024-02-28T06:39:57;23.20;;;3.80;;
51066;SDS011;37112;45.892;-123.962;2024-02-28T06:42:07;25.20;;;3.40;;
51066;SDS011;37112;45.892;-123.962;2024-02-28T06:44:17;23.10;;;4.00;;
51066;SDS011;37112;45.892;-123.962;2024-02-28T06:46:27;27.30;;;4.40;;
51066;SDS011;37112;45.892;-123.962;2024-02-28T06:48:37;25.30;;;3.90;;
51066;SDS011;37112;45.892;-123.962;2024-02-28T06:50:48;30.20;;;6.90;;
51066;SDS011;37112;45.892;-123.962;2024-02-28T06:52:57;26.20;;;4.00;;
51066;SDS011;37112;45.892;-123.962;2024-02-28T06:55:07;15.70;;;2.60;;
51066;SDS011;37112;45.892;-123.962;2024-02-28T06:57:19;22.30;;;3.00;;
51066;SDS011;37112;45.892;-123.962;2024-02-28T06:59:30;21.30;;;4.60;;
51066;SDS011;37112;45.892;-123.962;2024-02-28T07:01:40;16.10;;;2.40;;
51066;SDS011;37112;45.892;-123.962;2024-02-28T07:03:50;17.10;;;3.80;;
51066;SDS011;37112;45.892;-123.962;2024-02-28T07:06:01;15.30;;;2.60;;
51066;SDS011;37112;45.892;-123.962;2024-02-28T07:08:11;28.70;;;4.70;;
51066;SDS011;37112;45.892;-123.962;2024-02-28T07:10:21;35.80;;;6.50;;
51066;SDS011;37112;45.892;-123.962;2024-02-28T07:12:31;35.30;;;8.30;;
51066;SDS011;37112;45.892;-123.962;2024-02-28T07:14:41;29.50;;;5.80;;
51066;SDS011;37112;45.892;-123.962;2024-02-28T07:16:51;42.40;;;7.10;;
51066;SDS011;37112;45.892;-123.962;2024-02-28T07:19:01;41.00;;;6.90;;
51066;SDS011;37112;45.892;-123.962;2024-02-28T07:21:11;30.30;;;5.50;;
51066;SDS011;37112;45.892;-123.962;2024-02-28T07:23:21;32.60;;;5.00;;
51066;SDS011;37112;45.892;-123.962;2024-02-28T07:25:31;33.20;;;5.50;;
51066;SDS011;37112;45.892;-123.962;2024-02-28T07:27:41;37.20;;;6.70;;
51066;SDS011;37112;45.892;-123.962;2024-02-28T07:29:51;30.10;;;5.30;;
51066;SDS011;37112;45.892;-123.962;2024-02-28T07:32:01;20.10;;;3.80;;
51066;SDS011;37112;45.892;-123.962;2024-02-28T07:34:11;31.40;;;6.40;;
51066;SDS011;37112;45.892;-123.962;2024-02-28T07:36:22;32.60;;;6.20;;
51066;SDS011;37112;45.892;-123.962;2024-02-28T07:38:32;21.00;;;4.00;;
51066;SDS011;37112;45.892;-123.962;2024-02-28T07:40:42;19.00;;;2.30;;
51066;SDS011;37112;45.892;-123.962;2024-02-28T07:42:52;14.90;;;2.50;;
51066;SDS011;37112;45.892;-123.962;2024-02-28T07:45:03;21.20;;;3.00;;
51066;SDS011;37112;45.892;-123.962;2024-02-28T07:47:14;24.20;;;3.10;;
51066;SDS011;37112;45.892;-123.962;2024-02-28T07:49:24;17.30;;;2.90;;
51066;SDS011;37112;45.892;-123.962;2024-02-28T07:51:35;20.60;;;3.30;;
51066;SDS011;37112;45.892;-123.962;2024-02-28T07:53:46;19.50;;;3.40;;
51066;SDS011;37112;45.892;-123.962;2024-02-28T07:55:56;18.90;;;4.30;;
51066;SDS011;37112;45.892;-123.962;2024-02-28T07:58:06;16.20;;;2.60;;
51066;SDS011;37112;45.892;-123.962;2024-02-28T08:00:16;19.30;;;2.90;;
51066;SDS011;37112;45.892;-123.962;2024-02-28T08:02:27;21.10;;;3.40;;
51066;SDS011;37112;45.892;-123.962;2024-02-28T08:04:37;20.60;;;3.00;;
51066;SDS011;37112;45.892;-123.962;2024-02-28T08:06:48;11.80;;;2.50;;
51066;SDS011;37112;45.892;-123.962;2024-02-28T08:08:58;15.40;;;2.50;;
51066;SDS011;37112;45.892;-123.962;2024-02-28T08:11:10;13.20;;;2.20;;
51066;SDS011;37112;45.892;-123.962;2024-02-28T08:13:20;14.60;;;2.60;;
51066;SDS011;37112;45.892;-123.962;2024-02-28T08:15:30;19.00;;;3.00;;
51066;SDS011;37112;45.892;-123.962;2024-02-28T08:17:40;17.90;;;2.00;;
51066;SDS011;37112;45.892;-123.962;2024-02-28T08:19:50;22.80;;;4.50;;
51066;SDS011;37112;45.892;-123.962;2024-02-28T08:22:00;18.30;;;2.60;;
51066;SDS011;37112;45.892;-123.962;2024-02-28T08:24:11;15.20;;;2.60;;
51066;SDS011;37112;45.892;-123.962;2024-02-28T08:26:21;13.30;;;2.20;;
51066;SDS011;37112;45.892;-123.962;2024-02-28T08:28:31;17.20;;;2.80;;
51066;SDS011;37112;45.892;-123.962;2024-02-28T08:30:41;15.70;;;3.00;;
51066;SDS011;37112;45.892;-123.962;2024-02-28T08:32:51;22.40;;;4.70;;
51066;SDS011;37112;45.892;-123.962;2024-02-28T08:35:01;18.90;;;3.60;;
51066;SDS011;37112;45.892;-123.962;2024-02-28T08:37:12;23.70;;;3.10;;
51066;SDS011;37112;45.892;-123.962;2024-02-28T08:39:23;15.80;;;3.30;;
51066;SDS011;37112;45.892;-123.962;2024-02-28T08:41:33;14.50;;;2.90;;
51066;SDS011;37112;45.892;-123.962;2024-02-28T08:43:43;14.80;;;2.80;;
51066;SDS011;37112;45.892;-123.962;2024-02-28T08:45:53;19.90;;;3.50;;
51066;SDS011;37112;45.892;-123.962;2024-02-28T08:48:04;13.90;;;2.70;;
51066;SDS011;37112;45.892;-123.962;2024-02-28T08:50:15;26.40;;;4.20;;
51066;SDS011;37112;45.892;-123.962;2024-02-28T08:52:25;15.30;;;3.20;;
51066;SDS011;37112;45.892;-123.962;2024-02-28T08:54:35;19.40;;;4.70;;
51066;SDS011;37112;45.892;-123.962;2024-02-28T08:56:46;20.00;;;3.40;;
51066;SDS011;37112;45.892;-123.962;2024-02-28T08:59:04;12.80;;;2.60;;
51066;SDS011;37112;45.892;-123.962;2024-02-28T09:01:17;30.50;;;4.50;;
51066;SDS011;37112;45.892;-123.962;2024-02-28T09:03:27;21.30;;;3.40;;
51066;SDS011;37112;45.892;-123.962;2024-02-28T09:05:38;16.30;;;3.60;;
51066;SDS011;37112;45.892;-123.962;2024-02-28T09:07:48;20.10;;;4.60;;
51066;SDS011;37112;45.892;-123.962;2024-02-28T09:12:08;15.60;;;3.50;;
51066;SDS011;37112;45.892;-123.962;2024-02-28T09:14:18;23.80;;;5.10;;
51066;SDS011;37112;45.892;-123.962;2024-02-28T09:16:28;16.30;;;2.40;;
51066;SDS011;37112;45.892;-123.962;2024-02-28T09:18:38;20.40;;;3.20;;
51066;SDS011;37112;45.892;-123.962;2024-02-28T09:20:48;18.60;;;3.40;;
51066;SDS011;37112;45.892;-123.962;2024-02-28T09:22:58;19.30;;;3.30;;
51066;SDS011;37112;45.892;-123.962;2024-02-28T09:25:08;23.10;;;3.80;;
51066;SDS011;37112;45.892;-123.962;2024-02-28T09:27:18;31.00;;;3.80;;
51066;SDS011;37112;45.892;-123.962;2024-02-28T09:29:28;25.10;;;4.40;;
51066;SDS011;37112;45.892;-123.962;2024-02-28T09:31:38;23.10;;;4.80;;
51066;SDS011;37112;45.892;-123.962;2024-02-28T09:33:48;20.70;;;4.90;;
51066;SDS011;37112;45.892;-123.962;2024-02-28T09:35:59;31.40;;;4.80;;
51066;SDS011;37112;45.892;-123.962;2024-02-28T09:38:12;24.50;;;3.80;;
51066;SDS011;37112;45.892;-123.962;2024-02-28T09:40:22;28.40;;;3.60;;
51066;SDS011;37112;45.892;-123.962;2024-02-28T09:42:33;23.40;;;4.20;;
51066;SDS011;37112;45.892;-123.962;2024-02-28T09:44:44;23.40;;;4.10;;
51066;SDS011;37112;45.892;-123.962;2024-02-28T09:46:54;30.50;;;5.20;;
51066;SDS011;37112;45.892;-123.962;2024-02-28T09:49:04;28.60;;;5.30;;
51066;SDS011;37112;45.892;-123.962;2024-02-28T09:51:15;25.80;;;4.60;;
51066;SDS011;37112;45.892;-123.962;2024-02-28T09:53:29;28.90;;;5.40;;
51066;SDS011;37112;45.892;-123.962;2024-02-28T09:55:40;35.00;;;7.50;;
51066;SDS011;37112;45.892;-123.962;2024-02-28T09:57:50;32.30;;;6.80;;
51066;SDS011;37112;45.892;-123.962;2024-02-28T10:00:02;54.90;;;8.30;;
51066;SDS011;37112;45.892;-123.962;2024-02-28T10:02:15;44.00;;;6.50;;
51066;SDS011;37112;45.892;-123.962;2024-02-28T10:04:27;36.60;;;7.30;;
51066;SDS011;37112;45.892;-123.962;2024-02-28T10:06:37;45.90;;;7.20;;
51066;SDS011;37112;45.892;-123.962;2024-02-28T10:08:48;39.00;;;6.30;;
51066;SDS011;37112;45.892;-123.962;2024-02-28T10:10:58;43.60;;;8.40;;
51066;SDS011;37112;45.892;-123.962;2024-02-28T10:13:08;40.80;;;9.30;;
51066;SDS011;37112;45.892;-123.962;2024-02-28T10:15:19;37.80;;;8.20;;
51066;SDS011;37112;45.892;-123.962;2024-02-28T10:17:29;36.80;;;7.40;;
51066;SDS011;37112;45.892;-123.962;2024-02-28T10:19:39;64.80;;;10.60;;
51066;SDS011;37112;45.892;-123.962;2024-02-28T10:21:49;40.60;;;8.90;;
51066;SDS011;37112;45.892;-123.962;2024-02-28T10:23:59;32.20;;;5.80;;
51066;SDS011;37112;45.892;-123.962;2024-02-28T10:26:10;28.30;;;6.10;;
51066;SDS011;37112;45.892;-123.962;2024-02-28T10:28:21;38.20;;;7.80;;
51066;SDS011;37112;45.892;-123.962;2024-02-28T10:30:31;39.60;;;7.90;;
51066;SDS011;37112;45.892;-123.962;2024-02-28T10:32:51;37.00;;;6.80;;
51066;SDS011;37112;45.892;-123.962;2024-02-28T10:35:02;30.40;;;5.90;;
51066;SDS011;37112;45.892;-123.962;2024-02-28T10:37:17;31.60;;;5.00;;
51066;SDS011;37112;45.892;-123.962;2024-02-28T10:39:28;31.40;;;5.90;;
51066;SDS011;37112;45.892;-123.962;2024-02-28T10:41:41;32.40;;;5.20;;
51066;SDS011;37112;45.892;-123.962;2024-02-28T10:43:54;41.10;;;9.40;;
51066;SDS011;37112;45.892;-123.962;2024-02-28T10:46:04;28.50;;;6.00;;
51066;SDS011;37112;45.892;-123.962;2024-02-28T10:48:36;35.00;;;6.40;;
51066;SDS011;37112;45.892;-123.962;2024-02-28T10:50:46;35.70;;;7.40;;
51066;SDS011;37112;45.892;-123.962;2024-02-28T10:52:57;41.40;;;7.80;;
51066;SDS011;37112;45.892;-123.962;2024-02-28T10:55:14;32.20;;;7.00;;
51066;SDS011;37112;45.892;-123.962;2024-02-28T10:57:29;36.50;;;5.70;;
51066;SDS011;37112;45.892;-123.962;2024-02-28T10:59:40;46.00;;;6.90;;
51066;SDS011;37112;45.892;-123.962;2024-02-28T11:01:53;35.30;;;7.00;;
51066;SDS011;37112;45.892;-123.962;2024-02-28T11:04:03;36.10;;;6.40;;
51066;SDS011;37112;45.892;-123.962;2024-02-28T11:06:20;26.20;;;3.70;;
51066;SDS011;37112;45.892;-123.962;2024-02-28T11:08:30;22.10;;;4.60;;
51066;SDS011;37112;45.892;-123.962;2024-02-28T11:10:44;28.50;;;5.30;;
51066;SDS011;37112;45.892;-123.962;2024-02-28T11:12:56;38.50;;;7.10;;
51066;SDS011;37112;45.892;-123.962;2024-02-28T11:15:15;48.00;;;7.90;;
51066;SDS011;37112;45.892;-123.962;2024-02-28T11:17:27;31.50;;;5.50;;
51066;SDS011;37112;45.892;-123.962;2024-02-28T11:19:38;27.70;;;6.10;;
51066;SDS011;37112;45.892;-123.962;2024-02-28T11:21:48;40.20;;;4.80;;
51066;SDS011;37112;45.892;-123.962;2024-02-28T11:24:01;33.00;;;6.60;;
51066;SDS011;37112;45.892;-123.962;2024-02-28T11:26:12;23.60;;;3.70;;
51066;SDS011;37112;45.892;-123.962;2024-02-28T11:28:22;24.70;;;4.90;;
51066;SDS011;37112;45.892;-123.962;2024-02-28T11:30:32;23.90;;;4.80;;
51066;SDS011;37112;45.892;-123.962;2024-02-28T11:32:43;39.30;;;5.60;;
51066;SDS011;37112;45.892;-123.962;2024-02-28T11:34:53;38.70;;;9.20;;
51066;SDS011;37112;45.892;-123.962;2024-02-28T11:37:03;33.90;;;5.40;;
51066;SDS011;37112;45.892;-123.962;2024-02-28T11:39:14;30.30;;;5.50;;
51066;SDS011;37112;45.892;-123.962;2024-02-28T11:41:27;39.20;;;6.80;;
51066;SDS011;37112;45.892;-123.962;2024-02-28T11:43:38;43.10;;;8.00;;
51066;SDS011;37112;45.892;-123.962;2024-02-28T11:45:56;36.80;;;7.10;;
51066;SDS011;37112;45.892;-123.962;2024-02-28T11:48:07;29.20;;;4.40;;
51066;SDS011;37112;45.892;-123.962;2024-02-28T11:50:18;25.80;;;4.30;;
51066;SDS011;37112;45.892;-123.962;2024-02-28T11:52:29;30.20;;;5.00;;
51066;SDS011;37112;45.892;-123.962;2024-02-28T11:54:40;32.50;;;6.00;;
51066;SDS011;37112;45.892;-123.962;2024-02-28T11:56:50;29.20;;;6.70;;
51066;SDS011;37112;45.892;-123.962;2024-02-28T11:59:04;27.10;;;6.10;;
51066;SDS011;37112;45.892;-123.962;2024-02-28T12:01:14;26.10;;;4.50;;
51066;SDS011;37112;45.892;-123.962;2024-02-28T12:03:24;28.80;;;5.50;;
51066;SDS011;37112;45.892;-123.962;2024-02-28T12:05:34;31.10;;;5.90;;
51066;SDS011;37112;45.892;-123.962;2024-02-28T12:07:47;25.30;;;5.10;;
51066;SDS011;37112;45.892;-123.962;2024-02-28T12:10:01;20.50;;;3.70;;
51066;SDS011;37112;45.892;-123.962;2024-02-28T12:12:13;19.50;;;3.80;;
51066;SDS011;37112;45.892;-123.962;2024-02-28T12:14:24;25.10;;;3.40;;
51066;SDS011;37112;45.892;-123.962;2024-02-28T12:16:34;13.30;;;2.30;;
51066;SDS011;37112;45.892;-123.962;2024-02-28T12:18:46;12.90;;;2.50;;
51066;SDS011;37112;45.892;-123.962;2024-02-28T12:20:57;12.40;;;1.90;;
51066;SDS011;37112;45.892;-123.962;2024-02-28T12:23:06;17.90;;;2.80;;
51066;SDS011;37112;45.892;-123.962;2024-02-28T12:25:16;14.60;;;3.10;;